KVBG/VBG METAR and TAF weather

Enter ICAO airport designator
Station Type Date Time Source
KVBG METAR 2021/08/05 04:58 UTC NOAA

KVBG 050458Z AUTO 34011KT 6SM BR OVC003 14/13 A2998 RMK AO2 SLP155 T01360128 $


Station Type Date Time Source
KVBG Decoded METAR 2021/08/05 04:58 UTC NOAA

Lompoc, Vandenberg Air Force Base, CA, United States (KVBG) 34-43-46N 120-34-36W 121M
Aug 05, 2021 - 12:58 AM EDT / 2021.08.05 0458 UTC
Wind: from the NNW (340 degrees) at 13 MPH (11 KT):0
Visibility: 6 mile(s):0
Sky conditions: overcast
Weather: mist
Temperature: 56.5 F (13.6 C)
Dew Point: 55.0 F (12.8 C)
Relative Humidity: 94%
Pressure (altimeter): 29.98 in. Hg (1015 hPa)
ob: KVBG 050458Z AUTO 34011KT 6SM BR OVC003 14/13 A2998 RMK AO2 SLP155 T01360128
cycle: 5

Station Type Date Time Source
KVBG TAF 2021/08/04 22:09 UTC NOAA

TAF KVBG 042200Z 0422/0604 31012KT 9999 BKN010 QNH2994INS
TEMPO 0422/0504 31012G18KT
BECMG 0504/0505 32009KT 3200 BR OVC008 QNH2996INS
BECMG 0509/0510 33009KT 0800 FG OVC003 QNH2996INS
BECMG 0515/0516 32012KT 4800 BR OVC005 QNH3001INS
BECMG 0520/0521 32015KT 9999 NSW OVC008 QNH2999INS
BECMG 0522/0523 31012G18KT 9999 BKN008 QNH2995INS
TEMPO 0523/0603 31015G25KT 510006
BECMG 0603/0604 32012KT 4800 BR OVC008 QN2996INS TX19/0521Z TN13/0513Z LAST NO
AMDS AFT 0500 NEXT 0514

Example: see airport list